sensor_id;sensor_type;location;lat;lon;timestamp;temperature;humidity
33837;DHT22;20140;49.356;8.812;2022-10-16T00:01:26;15.60;99.90
33837;DHT22;20140;49.356;8.812;2022-10-16T00:03:52;15.50;99.90
33837;DHT22;20140;49.356;8.812;2022-10-16T00:06:19;15.50;99.90
33837;DHT22;20140;49.356;8.812;2022-10-16T00:08:46;15.50;99.90
33837;DHT22;20140;49.356;8.812;2022-10-16T00:11:17;15.50;99.90
33837;DHT22;20140;49.356;8.812;2022-10-16T00:13:45;15.50;99.90
33837;DHT22;20140;49.356;8.812;2022-10-16T00:16:12;15.50;99.90
33837;DHT22;20140;49.356;8.812;2022-10-16T00:18:39;15.50;99.90
33837;DHT22;20140;49.356;8.812;2022-10-16T00:21:09;15.50;99.90
33837;DHT22;20140;49.356;8.812;2022-10-16T00:23:36;15.50;99.90
33837;DHT22;20140;49.356;8.812;2022-10-16T00:26:08;15.60;99.90
33837;DHT22;20140;49.356;8.812;2022-10-16T00:28:34;15.60;99.90
33837;DHT22;20140;49.356;8.812;2022-10-16T00:31:07;15.60;99.90
33837;DHT22;20140;49.356;8.812;2022-10-16T00:33:33;15.50;99.90
33837;DHT22;20140;49.356;8.812;2022-10-16T00:36:00;15.50;99.90
33837;DHT22;20140;49.356;8.812;2022-10-16T00:38:25;15.50;99.90
33837;DHT22;20140;49.356;8.812;2022-10-16T00:40:51;15.50;99.90
33837;DHT22;20140;49.356;8.812;2022-10-16T00:43:41;15.40;99.90
33837;DHT22;20140;49.356;8.812;2022-10-16T00:46:17;15.40;99.90
33837;DHT22;20140;49.356;8.812;2022-10-16T00:48:59;15.50;99.90
33837;DHT22;20140;49.356;8.812;2022-10-16T00:51:32;15.40;99.90
33837;DHT22;20140;49.356;8.812;2022-10-16T00:54:00;15.40;99.90
33837;DHT22;20140;49.356;8.812;2022-10-16T00:56:26;15.40;99.90
33837;DHT22;20140;49.356;8.812;2022-10-16T00:58:52;15.40;99.90
33837;DHT22;20140;49.356;8.812;2022-10-16T01:01:17;15.40;99.90
33837;DHT22;20140;49.356;8.812;2022-10-16T01:03:43;15.40;99.90
33837;DHT22;20140;49.356;8.812;2022-10-16T01:06:36;15.40;99.90
33837;DHT22;20140;49.356;8.812;2022-10-16T01:14:57;15.40;99.90
33837;DHT22;20140;49.356;8.812;2022-10-16T01:17:39;15.40;99.90
33837;DHT22;20140;49.356;8.812;2022-10-16T01:20:35;15.40;99.90
33837;DHT22;20140;49.356;8.812;2022-10-16T01:29:33;15.50;99.90
33837;DHT22;20140;49.356;8.812;2022-10-16T01:31:57;15.60;99.90
33837;DHT22;20140;49.356;8.812;2022-10-16T01:34:31;15.50;99.90
33837;DHT22;20140;49.356;8.812;2022-10-16T01:37:08;15.60;99.90
33837;DHT22;20140;49.356;8.812;2022-10-16T01:39:38;15.70;99.90
33837;DHT22;20140;49.356;8.812;2022-10-16T01:42:09;15.60;99.90
33837;DHT22;20140;49.356;8.812;2022-10-16T01:44:37;15.60;99.90
33837;DHT22;20140;49.356;8.812;2022-10-16T01:47:04;15.60;99.90
33837;DHT22;20140;49.356;8.812;2022-10-16T01:49:33;15.50;99.90
33837;DHT22;20140;49.356;8.812;2022-10-16T01:52:04;15.50;99.90
33837;DHT22;20140;49.356;8.812;2022-10-16T01:54:32;15.50;99.90
33837;DHT22;20140;49.356;8.812;2022-10-16T01:57:00;15.50;99.90
33837;DHT22;20140;49.356;8.812;2022-10-16T01:59:28;15.50;99.90
33837;DHT22;20140;49.356;8.812;2022-10-16T02:01:59;15.50;99.90
33837;DHT22;20140;49.356;8.812;2022-10-16T02:04:32;15.50;99.90
33837;DHT22;20140;49.356;8.812;2022-10-16T02:06:58;15.50;99.90
33837;DHT22;20140;49.356;8.812;2022-10-16T02:09:24;15.50;99.90
33837;DHT22;20140;49.356;8.812;2022-10-16T02:11:50;15.50;99.90
33837;DHT22;20140;49.356;8.812;2022-10-16T02:14:18;15.50;99.90
33837;DHT22;20140;49.356;8.812;2022-10-16T02:16:45;15.50;99.90
33837;DHT22;20140;49.356;8.812;2022-10-16T02:19:15;15.40;99.90
33837;DHT22;20140;49.356;8.812;2022-10-16T02:29:26;15.50;99.90
33837;DHT22;20140;49.356;8.812;2022-10-16T02:32:01;15.50;99.90
33837;DHT22;20140;49.356;8.812;2022-10-16T02:34:30;15.40;99.90
33837;DHT22;20140;49.356;8.812;2022-10-16T02:36:57;15.40;99.90
33837;DHT22;20140;49.356;8.812;2022-10-16T02:39:24;15.40;99.90
33837;DHT22;20140;49.356;8.812;2022-10-16T02:41:51;15.50;99.90
33837;DHT22;20140;49.356;8.812;2022-10-16T02:44:16;15.50;99.90
33837;DHT22;20140;49.356;8.812;2022-10-16T02:46:42;15.50;99.90
33837;DHT22;20140;49.356;8.812;2022-10-16T02:49:07;15.50;99.90
33837;DHT22;20140;49.356;8.812;2022-10-16T02:51:33;15.50;99.90
33837;DHT22;20140;49.356;8.812;2022-10-16T02:53:58;15.50;99.90
33837;DHT22;20140;49.356;8.812;2022-10-16T02:56:24;15.50;99.90
33837;DHT22;20140;49.356;8.812;2022-10-16T02:58:49;15.50;99.90
33837;DHT22;20140;49.356;8.812;2022-10-16T03:01:15;15.50;99.90
33837;DHT22;20140;49.356;8.812;2022-10-16T03:03:42;15.50;99.90
33837;DHT22;20140;49.356;8.812;2022-10-16T03:06:07;15.50;99.90
33837;DHT22;20140;49.356;8.812;2022-10-16T03:08:33;15.50;99.90
33837;DHT22;20140;49.356;8.812;2022-10-16T03:10:59;15.50;99.90
33837;DHT22;20140;49.356;8.812;2022-10-16T03:13:24;15.50;99.90
33837;DHT22;20140;49.356;8.812;2022-10-16T03:15:50;15.40;99.90
33837;DHT22;20140;49.356;8.812;2022-10-16T03:18:16;15.50;99.90
33837;DHT22;20140;49.356;8.812;2022-10-16T03:20:42;15.50;99.90
33837;DHT22;20140;49.356;8.812;2022-10-16T03:23:08;15.50;99.90
33837;DHT22;20140;49.356;8.812;2022-10-16T03:25:34;15.50;99.90
33837;DHT22;20140;49.356;8.812;2022-10-16T03:27:59;15.60;99.90
33837;DHT22;20140;49.356;8.812;2022-10-16T03:30:25;15.50;99.90
33837;DHT22;20140;49.356;8.812;2022-10-16T03:32:50;15.50;99.90
33837;DHT22;20140;49.356;8.812;2022-10-16T03:35:19;15.50;99.90
33837;DHT22;20140;49.356;8.812;2022-10-16T03:37:45;15.50;99.90
33837;DHT22;20140;49.356;8.812;2022-10-16T03:40:11;15.50;99.90
33837;DHT22;20140;49.356;8.812;2022-10-16T03:42:36;15.50;99.90
33837;DHT22;20140;49.356;8.812;2022-10-16T03:45:03;15.50;99.90
33837;DHT22;20140;49.356;8.812;2022-10-16T03:47:28;15.40;99.90
33837;DHT22;20140;49.356;8.812;2022-10-16T03:49:54;15.40;99.90
33837;DHT22;20140;49.356;8.812;2022-10-16T03:52:19;15.40;99.90
33837;DHT22;20140;49.356;8.812;2022-10-16T03:54:45;15.40;99.90
33837;DHT22;20140;49.356;8.812;2022-10-16T03:57:11;15.40;99.90
33837;DHT22;20140;49.356;8.812;2022-10-16T03:59:36;15.40;99.90
33837;DHT22;20140;49.356;8.812;2022-10-16T04:02:02;15.40;99.90
33837;DHT22;20140;49.356;8.812;2022-10-16T04:04:27;15.40;99.90
33837;DHT22;20140;49.356;8.812;2022-10-16T04:06:53;15.40;99.90
33837;DHT22;20140;49.356;8.812;2022-10-16T04:09:18;15.40;99.90
33837;DHT22;20140;49.356;8.812;2022-10-16T04:11:44;15.50;99.90
33837;DHT22;20140;49.356;8.812;2022-10-16T04:14:09;15.40;99.90
33837;DHT22;20140;49.356;8.812;2022-10-16T04:16:35;15.40;99.90
33837;DHT22;20140;49.356;8.812;2022-10-16T04:19:00;15.50;99.90
33837;DHT22;20140;49.356;8.812;2022-10-16T04:21:26;15.40;99.90
33837;DHT22;20140;49.356;8.812;2022-10-16T04:23:52;15.40;99.90
33837;DHT22;20140;49.356;8.812;2022-10-16T04:26:17;15.50;99.90
33837;DHT22;20140;49.356;8.812;2022-10-16T04:28:43;15.50;99.90
33837;DHT22;20140;49.356;8.812;2022-10-16T04:31:08;15.50;99.90
33837;DHT22;20140;49.356;8.812;2022-10-16T04:33:34;15.50;99.90
33837;DHT22;20140;49.356;8.812;2022-10-16T04:36:00;15.40;99.90
33837;DHT22;20140;49.356;8.812;2022-10-16T04:38:26;15.40;99.90
33837;DHT22;20140;49.356;8.812;2022-10-16T04:40:52;15.40;99.90
33837;DHT22;20140;49.356;8.812;2022-10-16T04:43:18;15.40;99.90
33837;DHT22;20140;49.356;8.812;2022-10-16T04:45:44;15.30;99.90
33837;DHT22;20140;49.356;8.812;2022-10-16T04:48:10;15.40;99.90
33837;DHT22;20140;49.356;8.812;2022-10-16T04:50:35;15.60;99.90
33837;DHT22;20140;49.356;8.812;2022-10-16T04:53:01;15.60;99.90
33837;DHT22;20140;49.356;8.812;2022-10-16T04:55:26;15.60;99.90
33837;DHT22;20140;49.356;8.812;2022-10-16T04:57:52;15.40;99.90
33837;DHT22;20140;49.356;8.812;2022-10-16T05:00:18;15.40;99.90
33837;DHT22;20140;49.356;8.812;2022-10-16T05:02:43;15.30;99.90
33837;DHT22;20140;49.356;8.812;2022-10-16T05:05:09;15.40;99.90
33837;DHT22;20140;49.356;8.812;2022-10-16T05:07:35;15.30;99.90
33837;DHT22;20140;49.356;8.812;2022-10-16T05:10:00;15.30;99.90
33837;DHT22;20140;49.356;8.812;2022-10-16T05:12:26;15.30;99.90
33837;DHT22;20140;49.356;8.812;2022-10-16T05:14:51;15.30;99.90
33837;DHT22;20140;49.356;8.812;2022-10-16T05:17:17;15.30;99.90
33837;DHT22;20140;49.356;8.812;2022-10-16T05:19:42;15.20;99.90
33837;DHT22;20140;49.356;8.812;2022-10-16T05:22:08;15.20;99.90
33837;DHT22;20140;49.356;8.812;2022-10-16T05:24:34;15.20;99.90
33837;DHT22;20140;49.356;8.812;2022-10-16T05:27:00;15.20;99.90
33837;DHT22;20140;49.356;8.812;2022-10-16T05:29:25;15.20;99.90
33837;DHT22;20140;49.356;8.812;2022-10-16T05:31:54;15.20;99.90
33837;DHT22;20140;49.356;8.812;2022-10-16T05:34:20;15.30;99.90
33837;DHT22;20140;49.356;8.812;2022-10-16T05:36:46;15.20;99.90
33837;DHT22;20140;49.356;8.812;2022-10-16T05:39:12;15.20;99.90
33837;DHT22;20140;49.356;8.812;2022-10-16T05:41:38;15.10;99.90
33837;DHT22;20140;49.356;8.812;2022-10-16T05:44:05;15.10;99.90
33837;DHT22;20140;49.356;8.812;2022-10-16T05:46:31;15.20;99.90
33837;DHT22;20140;49.356;8.812;2022-10-16T05:48:57;15.20;99.90
33837;DHT22;20140;49.356;8.812;2022-10-16T05:51:22;15.10;99.90
33837;DHT22;20140;49.356;8.812;2022-10-16T05:53:48;15.10;99.90
33837;DHT22;20140;49.356;8.812;2022-10-16T05:56:14;15.10;99.90
33837;DHT22;20140;49.356;8.812;2022-10-16T05:58:40;15.10;99.90
33837;DHT22;20140;49.356;8.812;2022-10-16T06:01:16;15.10;99.90
33837;DHT22;20140;49.356;8.812;2022-10-16T06:03:42;15.10;99.90
33837;DHT22;20140;49.356;8.812;2022-10-16T06:06:13;15.10;99.90
33837;DHT22;20140;49.356;8.812;2022-10-16T06:08:40;15.00;99.90
33837;DHT22;20140;49.356;8.812;2022-10-16T06:11:08;15.00;99.90
33837;DHT22;20140;49.356;8.812;2022-10-16T06:13:34;15.00;99.90
33837;DHT22;20140;49.356;8.812;2022-10-16T06:16:00;15.00;99.90
33837;DHT22;20140;49.356;8.812;2022-10-16T06:18:27;15.00;99.90
33837;DHT22;20140;49.356;8.812;2022-10-16T06:20:54;15.00;99.90
33837;DHT22;20140;49.356;8.812;2022-10-16T06:23:19;15.00;99.90
33837;DHT22;20140;49.356;8.812;2022-10-16T06:25:45;15.00;99.90
33837;DHT22;20140;49.356;8.812;2022-10-16T06:28:11;14.90;99.90
33837;DHT22;20140;49.356;8.812;2022-10-16T06:30:36;15.00;99.90
33837;DHT22;20140;49.356;8.812;2022-10-16T06:33:02;15.00;99.90
33837;DHT22;20140;49.356;8.812;2022-10-16T06:35:27;15.10;99.90
33837;DHT22;20140;49.356;8.812;2022-10-16T06:37:54;15.30;99.90
33837;DHT22;20140;49.356;8.812;2022-10-16T06:40:20;15.20;99.90
33837;DHT22;20140;49.356;8.812;2022-10-16T06:42:45;15.20;99.90
33837;DHT22;20140;49.356;8.812;2022-10-16T06:45:11;15.20;99.90
33837;DHT22;20140;49.356;8.812;2022-10-16T06:47:36;15.30;99.90
33837;DHT22;20140;49.356;8.812;2022-10-16T06:50:02;15.20;99.90
33837;DHT22;20140;49.356;8.812;2022-10-16T06:52:29;15.20;99.90
33837;DHT22;20140;49.356;8.812;2022-10-16T06:54:54;15.10;99.90
33837;DHT22;20140;49.356;8.812;2022-10-16T06:57:20;15.10;99.90
33837;DHT22;20140;49.356;8.812;2022-10-16T06:59:45;15.10;99.90
33837;DHT22;20140;49.356;8.812;2022-10-16T07:02:11;15.10;99.90
33837;DHT22;20140;49.356;8.812;2022-10-16T07:04:36;15.10;99.90
33837;DHT22;20140;49.356;8.812;2022-10-16T07:07:02;15.10;99.90
33837;DHT22;20140;49.356;8.812;2022-10-16T07:09:28;15.20;99.90
33837;DHT22;20140;49.356;8.812;2022-10-16T07:11:53;15.10;99.90
33837;DHT22;20140;49.356;8.812;2022-10-16T07:14:20;15.10;99.90
33837;DHT22;20140;49.356;8.812;2022-10-16T07:16:47;15.20;99.90
33837;DHT22;20140;49.356;8.812;2022-10-16T07:19:13;15.20;99.90
33837;DHT22;20140;49.356;8.812;2022-10-16T07:21:40;15.40;99.90
33837;DHT22;20140;49.356;8.812;2022-10-16T07:24:10;15.50;99.90
33837;DHT22;20140;49.356;8.812;2022-10-16T07:26:37;15.50;99.90
33837;DHT22;20140;49.356;8.812;2022-10-16T07:29:05;15.60;99.90
33837;DHT22;20140;49.356;8.812;2022-10-16T07:31:31;15.70;99.90
33837;DHT22;20140;49.356;8.812;2022-10-16T07:33:59;15.70;99.90
33837;DHT22;20140;49.356;8.812;2022-10-16T07:36:25;15.70;99.90
33837;DHT22;20140;49.356;8.812;2022-10-16T07:38:51;15.70;99.90
33837;DHT22;20140;49.356;8.812;2022-10-16T07:41:18;15.80;99.90
33837;DHT22;20140;49.356;8.812;2022-10-16T07:43:49;15.80;99.90
33837;DHT22;20140;49.356;8.812;2022-10-16T07:46:15;15.90;99.90
33837;DHT22;20140;49.356;8.812;2022-10-16T07:48:41;16.00;99.90
33837;DHT22;20140;49.356;8.812;2022-10-16T07:51:11;16.00;99.90
33837;DHT22;20140;49.356;8.812;2022-10-16T07:53:37;16.00;99.90
33837;DHT22;20140;49.356;8.812;2022-10-16T07:56:06;16.00;99.90
33837;DHT22;20140;49.356;8.812;2022-10-16T07:58:34;16.00;99.90
33837;DHT22;20140;49.356;8.812;2022-10-16T08:01:09;16.20;99.90
33837;DHT22;20140;49.356;8.812;2022-10-16T08:03:36;16.40;99.90
33837;DHT22;20140;49.356;8.812;2022-10-16T08:06:02;16.30;99.90
33837;DHT22;20140;49.356;8.812;2022-10-16T08:08:28;16.40;99.90
33837;DHT22;20140;49.356;8.812;2022-10-16T08:10:54;16.30;99.90
33837;DHT22;20140;49.356;8.812;2022-10-16T08:13:20;16.30;99.90
33837;DHT22;20140;49.356;8.812;2022-10-16T08:15:46;16.40;99.90
33837;DHT22;20140;49.356;8.812;2022-10-16T08:18:13;16.40;99.90
33837;DHT22;20140;49.356;8.812;2022-10-16T08:20:39;16.60;99.90
33837;DHT22;20140;49.356;8.812;2022-10-16T08:23:05;16.60;99.90
33837;DHT22;20140;49.356;8.812;2022-10-16T08:25:31;16.70;99.90
33837;DHT22;20140;49.356;8.812;2022-10-16T08:27:56;16.80;99.90
33837;DHT22;20140;49.356;8.812;2022-10-16T08:30:23;16.80;99.90
33837;DHT22;20140;49.356;8.812;2022-10-16T08:32:49;16.70;99.90
33837;DHT22;20140;49.356;8.812;2022-10-16T08:35:15;16.80;99.90
33837;DHT22;20140;49.356;8.812;2022-10-16T08:37:42;16.80;99.90
33837;DHT22;20140;49.356;8.812;2022-10-16T08:40:19;16.90;99.90
33837;DHT22;20140;49.356;8.812;2022-10-16T08:43:22;16.90;99.90
33837;DHT22;20140;49.356;8.812;2022-10-16T08:46:21;16.90;99.90
33837;DHT22;20140;49.356;8.812;2022-10-16T08:48:51;17.00;99.90
33837;DHT22;20140;49.356;8.812;2022-10-16T08:51:31;17.10;99.90
33837;DHT22;20140;49.356;8.812;2022-10-16T08:56:54;17.10;99.90
33837;DHT22;20140;49.356;8.812;2022-10-16T08:59:21;17.20;99.90
33837;DHT22;20140;49.356;8.812;2022-10-16T09:01:50;17.10;99.90
33837;DHT22;20140;49.356;8.812;2022-10-16T09:04:30;17.00;99.90
33837;DHT22;20140;49.356;8.812;2022-10-16T09:07:30;17.00;99.90
33837;DHT22;20140;49.356;8.812;2022-10-16T09:13:26;17.20;99.90
33837;DHT22;20140;49.356;8.812;2022-10-16T09:16:01;17.30;99.90
33837;DHT22;20140;49.356;8.812;2022-10-16T09:21:47;17.70;99.90
33837;DHT22;20140;49.356;8.812;2022-10-16T09:24:21;17.70;99.90
33837;DHT22;20140;49.356;8.812;2022-10-16T09:26:49;17.80;99.90
33837;DHT22;20140;49.356;8.812;2022-10-16T09:29:16;17.80;99.90
33837;DHT22;20140;49.356;8.812;2022-10-16T09:31:42;17.60;99.90
33837;DHT22;20140;49.356;8.812;2022-10-16T09:34:32;17.50;99.90
33837;DHT22;20140;49.356;8.812;2022-10-16T09:36:59;17.40;99.90
33837;DHT22;20140;49.356;8.812;2022-10-16T09:39:26;17.40;99.90
33837;DHT22;20140;49.356;8.812;2022-10-16T09:41:52;17.60;99.90
33837;DHT22;20140;49.356;8.812;2022-10-16T09:44:27;17.60;99.90
33837;DHT22;20140;49.356;8.812;2022-10-16T09:47:03;17.70;99.90
33837;DHT22;20140;49.356;8.812;2022-10-16T09:49:29;17.90;99.90
33837;DHT22;20140;49.356;8.812;2022-10-16T09:52:05;17.90;99.90
33837;DHT22;20140;49.356;8.812;2022-10-16T09:54:31;18.00;99.90
33837;DHT22;20140;49.356;8.812;2022-10-16T09:57:07;18.10;99.90
33837;DHT22;20140;49.356;8.812;2022-10-16T09:59:33;18.20;99.90
33837;DHT22;20140;49.356;8.812;2022-10-16T10:02:03;18.30;99.90
33837;DHT22;20140;49.356;8.812;2022-10-16T10:04:40;18.30;99.90
33837;DHT22;20140;49.356;8.812;2022-10-16T10:07:20;18.30;99.90
33837;DHT22;20140;49.356;8.812;2022-10-16T10:09:48;18.60;99.90
33837;DHT22;20140;49.356;8.812;2022-10-16T10:12:23;18.70;99.90
33837;DHT22;20140;49.356;8.812;2022-10-16T10:14:51;18.80;99.90
33837;DHT22;20140;49.356;8.812;2022-10-16T10:17:21;18.90;99.90
33837;DHT22;20140;49.356;8.812;2022-10-16T10:25:15;19.40;99.90
33837;DHT22;20140;49.356;8.812;2022-10-16T10:28:07;19.70;99.90
33837;DHT22;20140;49.356;8.812;2022-10-16T10:30:40;19.60;99.90
33837;DHT22;20140;49.356;8.812;2022-10-16T10:46:53;19.70;99.90
33837;DHT22;20140;49.356;8.812;2022-10-16T10:49:53;19.60;99.90
33837;DHT22;20140;49.356;8.812;2022-10-16T10:55:31;19.70;99.90
33837;DHT22;20140;49.356;8.812;2022-10-16T11:01:14;19.90;99.90
33837;DHT22;20140;49.356;8.812;2022-10-16T11:04:12;20.00;99.90
33837;DHT22;20140;49.356;8.812;2022-10-16T11:06:48;20.10;99.90
33837;DHT22;20140;49.356;8.812;2022-10-16T11:09:23;20.20;99.90
33837;DHT22;20140;49.356;8.812;2022-10-16T11:11:58;20.30;99.90
33837;DHT22;20140;49.356;8.812;2022-10-16T11:14:34;20.30;99.90
33837;DHT22;20140;49.356;8.812;2022-10-16T11:17:19;20.40;99.90
33837;DHT22;20140;49.356;8.812;2022-10-16T11:25:00;20.80;99.90
33837;DHT22;20140;49.356;8.812;2022-10-16T11:27:40;20.70;99.90
33837;DHT22;20140;49.356;8.812;2022-10-16T11:30:21;20.90;99.90
33837;DHT22;20140;49.356;8.812;2022-10-16T11:37:57;21.00;99.90
33837;DHT22;20140;49.356;8.812;2022-10-16T11:40:32;21.10;99.90
33837;DHT22;20140;49.356;8.812;2022-10-16T11:43:17;21.20;99.90
33837;DHT22;20140;49.356;8.812;2022-10-16T11:45:49;21.20;99.90
33837;DHT22;20140;49.356;8.812;2022-10-16T11:56:48;21.70;99.90
33837;DHT22;20140;49.356;8.812;2022-10-16T11:59:28;21.70;99.90
33837;DHT22;20140;49.356;8.812;2022-10-16T12:04:47;22.10;99.90
33837;DHT22;20140;49.356;8.812;2022-10-16T12:07:23;22.10;99.90
33837;DHT22;20140;49.356;8.812;2022-10-16T12:09:49;22.20;99.90
33837;DHT22;20140;49.356;8.812;2022-10-16T12:15:25;23.30;99.90
33837;DHT22;20140;49.356;8.812;2022-10-16T12:17:52;23.90;99.90
33837;DHT22;20140;49.356;8.812;2022-10-16T12:22:54;24.50;99.90
33837;DHT22;20140;49.356;8.812;2022-10-16T12:25:36;23.50;99.90
33837;DHT22;20140;49.356;8.812;2022-10-16T12:30:41;22.90;99.90
33837;DHT22;20140;49.356;8.812;2022-10-16T12:33:23;22.80;99.90
33837;DHT22;20140;49.356;8.812;2022-10-16T12:35:49;22.60;99.90
33837;DHT22;20140;49.356;8.812;2022-10-16T12:38:26;22.80;99.90
33837;DHT22;20140;49.356;8.812;2022-10-16T12:41:08;22.70;99.90
33837;DHT22;20140;49.356;8.812;2022-10-16T12:43:45;22.80;99.90
33837;DHT22;20140;49.356;8.812;2022-10-16T12:48:38;22.90;99.90
33837;DHT22;20140;49.356;8.812;2022-10-16T12:51:24;22.90;99.90
33837;DHT22;20140;49.356;8.812;2022-10-16T12:54:03;23.10;99.90
33837;DHT22;20140;49.356;8.812;2022-10-16T13:08:36;23.40;99.90
33837;DHT22;20140;49.356;8.812;2022-10-16T13:28:08;22.40;99.90
33837;DHT22;20140;49.356;8.812;2022-10-16T13:30:42;22.50;99.90
33837;DHT22;20140;49.356;8.812;2022-10-16T13:33:15;22.50;99.90
33837;DHT22;20140;49.356;8.812;2022-10-16T13:35:54;22.50;99.90
33837;DHT22;20140;49.356;8.812;2022-10-16T13:38:33;22.30;99.90
33837;DHT22;20140;49.356;8.812;2022-10-16T13:41:14;22.10;99.90
33837;DHT22;20140;49.356;8.812;2022-10-16T13:43:44;22.00;99.90
33837;DHT22;20140;49.356;8.812;2022-10-16T13:48:42;21.70;99.90
33837;DHT22;20140;49.356;8.812;2022-10-16T13:51:14;21.70;99.90
33837;DHT22;20140;49.356;8.812;2022-10-16T13:53:40;21.70;99.90
33837;DHT22;20140;49.356;8.812;2022-10-16T13:56:11;21.60;99.90
33837;DHT22;20140;49.356;8.812;2022-10-16T13:58:37;21.40;99.90
33837;DHT22;20140;49.356;8.812;2022-10-16T14:01:05;21.30;99.90
33837;DHT22;20140;49.356;8.812;2022-10-16T14:03:32;21.20;99.90
33837;DHT22;20140;49.356;8.812;2022-10-16T14:06:01;21.20;99.90
33837;DHT22;20140;49.356;8.812;2022-10-16T14:08:29;21.00;99.90
33837;DHT22;20140;49.356;8.812;2022-10-16T14:10:57;20.90;99.90
33837;DHT22;20140;49.356;8.812;2022-10-16T14:15:54;20.70;99.90
33837;DHT22;20140;49.356;8.812;2022-10-16T14:18:22;20.70;99.90
33837;DHT22;20140;49.356;8.812;2022-10-16T14:20:48;20.60;99.90
33837;DHT22;20140;49.356;8.812;2022-10-16T14:23:31;20.50;99.90
33837;DHT22;20140;49.356;8.812;2022-10-16T14:26:13;20.50;99.90
33837;DHT22;20140;49.356;8.812;2022-10-16T14:28:40;20.40;99.90
33837;DHT22;20140;49.356;8.812;2022-10-16T14:31:31;20.30;99.90
33837;DHT22;20140;49.356;8.812;2022-10-16T14:33:58;20.20;99.90
33837;DHT22;20140;49.356;8.812;2022-10-16T14:36:24;20.10;99.90
33837;DHT22;20140;49.356;8.812;2022-10-16T14:39:06;20.00;99.90
33837;DHT22;20140;49.356;8.812;2022-10-16T14:41:45;19.90;99.90
33837;DHT22;20140;49.356;8.812;2022-10-16T14:44:12;19.90;99.90
33837;DHT22;20140;49.356;8.812;2022-10-16T14:46:40;19.90;99.90
33837;DHT22;20140;49.356;8.812;2022-10-16T14:51:39;19.80;99.90
33837;DHT22;20140;49.356;8.812;2022-10-16T14:54:17;19.80;99.90
33837;DHT22;20140;49.356;8.812;2022-10-16T14:56:55;19.70;99.90
33837;DHT22;20140;49.356;8.812;2022-10-16T15:01:56;19.70;99.90
33837;DHT22;20140;49.356;8.812;2022-10-16T15:04:21;19.70;99.90
33837;DHT22;20140;49.356;8.812;2022-10-16T15:06:47;19.70;99.90
33837;DHT22;20140;49.356;8.812;2022-10-16T15:09:13;19.80;99.90
33837;DHT22;20140;49.356;8.812;2022-10-16T15:11:39;19.90;99.90
33837;DHT22;20140;49.356;8.812;2022-10-16T15:14:05;20.10;99.90
33837;DHT22;20140;49.356;8.812;2022-10-16T15:16:31;20.50;99.90
33837;DHT22;20140;49.356;8.812;2022-10-16T15:18:57;20.80;99.90
33837;DHT22;20140;49.356;8.812;2022-10-16T15:21:28;20.90;99.90
33837;DHT22;20140;49.356;8.812;2022-10-16T15:23:55;21.20;99.90
33837;DHT22;20140;49.356;8.812;2022-10-16T15:26:22;21.30;99.90
33837;DHT22;20140;49.356;8.812;2022-10-16T15:28:48;21.30;99.90
33837;DHT22;20140;49.356;8.812;2022-10-16T15:31:14;21.50;99.90
33837;DHT22;20140;49.356;8.812;2022-10-16T15:33:39;21.30;99.90
33837;DHT22;20140;49.356;8.812;2022-10-16T15:36:05;21.20;99.90
33837;DHT22;20140;49.356;8.812;2022-10-16T15:38:31;20.90;99.90
33837;DHT22;20140;49.356;8.812;2022-10-16T15:40:57;20.70;99.90
33837;DHT22;20140;49.356;8.812;2022-10-16T15:43:22;20.60;99.90
33837;DHT22;20140;49.356;8.812;2022-10-16T15:45:59;20.40;99.90
33837;DHT22;20140;49.356;8.812;2022-10-16T15:48:26;20.20;99.90
33837;DHT22;20140;49.356;8.812;2022-10-16T15:50:51;20.10;99.90
33837;DHT22;20140;49.356;8.812;2022-10-16T15:53:17;20.00;99.90
33837;DHT22;20140;49.356;8.812;2022-10-16T15:55:43;19.80;99.90
33837;DHT22;20140;49.356;8.812;2022-10-16T15:58:08;19.80;99.90
33837;DHT22;20140;49.356;8.812;2022-10-16T16:00:34;19.80;99.90
33837;DHT22;20140;49.356;8.812;2022-10-16T16:02:59;19.90;99.90
33837;DHT22;20140;49.356;8.812;2022-10-16T16:05:25;19.80;99.90
33837;DHT22;20140;49.356;8.812;2022-10-16T16:07:51;19.60;99.90
33837;DHT22;20140;49.356;8.812;2022-10-16T16:10:17;19.50;99.90
33837;DHT22;20140;49.356;8.812;2022-10-16T16:12:43;19.60;99.90
33837;DHT22;20140;49.356;8.812;2022-10-16T16:15:14;19.50;99.90
33837;DHT22;20140;49.356;8.812;2022-10-16T16:17:40;19.40;99.90
33837;DHT22;20140;49.356;8.812;2022-10-16T16:20:06;19.30;99.90
33837;DHT22;20140;49.356;8.812;2022-10-16T16:22:32;19.20;99.90
33837;DHT22;20140;49.356;8.812;2022-10-16T16:24:58;19.10;99.90
33837;DHT22;20140;49.356;8.812;2022-10-16T16:27:23;19.00;99.90
33837;DHT22;20140;49.356;8.812;2022-10-16T16:29:50;18.90;99.90
33837;DHT22;20140;49.356;8.812;2022-10-16T16:32:15;18.70;99.90
33837;DHT22;20140;49.356;8.812;2022-10-16T16:34:41;18.60;99.90
33837;DHT22;20140;49.356;8.812;2022-10-16T16:37:07;18.50;99.90
33837;DHT22;20140;49.356;8.812;2022-10-16T16:39:32;18.40;99.90
33837;DHT22;20140;49.356;8.812;2022-10-16T16:41:58;18.20;99.90
33837;DHT22;20140;49.356;8.812;2022-10-16T16:44:24;18.10;99.90
33837;DHT22;20140;49.356;8.812;2022-10-16T16:46:49;17.90;99.90
33837;DHT22;20140;49.356;8.812;2022-10-16T16:49:15;17.80;99.90
33837;DHT22;20140;49.356;8.812;2022-10-16T16:51:41;17.70;99.90
33837;DHT22;20140;49.356;8.812;2022-10-16T16:54:07;17.60;99.90
33837;DHT22;20140;49.356;8.812;2022-10-16T16:56:33;17.60;99.90
33837;DHT22;20140;49.356;8.812;2022-10-16T16:58:59;17.50;99.90
33837;DHT22;20140;49.356;8.812;2022-10-16T17:01:26;17.40;99.90
33837;DHT22;20140;49.356;8.812;2022-10-16T17:03:54;17.30;99.90
33837;DHT22;20140;49.356;8.812;2022-10-16T17:06:23;17.30;99.90
33837;DHT22;20140;49.356;8.812;2022-10-16T17:08:49;17.20;99.90
33837;DHT22;20140;49.356;8.812;2022-10-16T17:11:18;17.20;99.90
33837;DHT22;20140;49.356;8.812;2022-10-16T17:13:44;17.10;99.90
33837;DHT22;20140;49.356;8.812;2022-10-16T17:16:10;17.10;99.90
33837;DHT22;20140;49.356;8.812;2022-10-16T17:18:36;17.00;99.90
33837;DHT22;20140;49.356;8.812;2022-10-16T17:21:03;17.00;99.90
33837;DHT22;20140;49.356;8.812;2022-10-16T17:23:29;16.90;99.90
33837;DHT22;20140;49.356;8.812;2022-10-16T17:25:55;16.90;99.90
33837;DHT22;20140;49.356;8.812;2022-10-16T17:28:21;16.80;99.90
33837;DHT22;20140;49.356;8.812;2022-10-16T17:30:47;16.70;99.90
33837;DHT22;20140;49.356;8.812;2022-10-16T17:33:13;16.70;99.90
33837;DHT22;20140;49.356;8.812;2022-10-16T17:35:41;16.60;99.90
33837;DHT22;20140;49.356;8.812;2022-10-16T17:38:07;16.60;99.90
33837;DHT22;20140;49.356;8.812;2022-10-16T17:40:33;16.50;99.90
33837;DHT22;20140;49.356;8.812;2022-10-16T17:42:59;16.50;99.90
33837;DHT22;20140;49.356;8.812;2022-10-16T17:45:25;16.50;99.90
33837;DHT22;20140;49.356;8.812;2022-10-16T17:47:51;16.50;99.90